Time;durP1;ratioP1;P1;durP2;ratioP2;P2;SDS_P1;SDS_P2;PMS_P1;PMS_P2;Temp;Humidity;BMP_temperature;BMP_pressure;BME280_temperature;BME280_humidity;BME280_pressure;Samples;Min_cycle;Max_cycle;Signal;HPM_P1;HPM_P2
2023/01/07 00:01:01;;;;;;;20.60;10.50;;;;;;;17.31;100.00;101402.97;5113126;28;20287;-51
2023/01/07 00:03:28;;;;;;;20.83;10.23;;;;;;;17.25;100.00;101402.00;5111527;28;20268;-54
2023/01/07 00:06:01;;;;;;;22.00;11.65;;;;;;;17.23;100.00;101401.41;5112177;28;20332;-51
2023/01/07 00:08:31;;;;;;;22.43;10.37;;;;;;;17.15;100.00;101407.13;5111104;28;20062;-53
2023/01/07 00:11:04;;;;;;;23.10;10.47;;;;;;;17.24;100.00;101410.34;5114815;28;20275;-55
2023/01/07 00:13:31;;;;;;;23.80;10.33;;;;;;;17.04;100.00;101395.19;5112724;28;20265;-52
2023/01/07 00:16:01;;;;;;;18.98;10.32;;;;;;;16.92;100.00;101389.66;5117738;28;20284;-56
2023/01/07 00:18:27;;;;;;;24.80;10.23;;;;;;;16.81;100.00;101385.84;5114362;28;20032;-54
2023/01/07 00:21:00;;;;;;;19.97;9.33;;;;;;;16.90;100.00;101383.66;5110340;28;20325;-51
2023/01/07 00:23:27;;;;;;;23.70;9.70;;;;;;;17.36;100.00;101381.47;5111859;28;20286;-50
2023/01/07 00:25:58;;;;;;;;;;;;;;;17.20;100.00;101378.38;5110351;28;20260;-51
2023/01/07 00:28:24;;;;;;;17.57;9.37;;;;;;;16.71;100.00;101385.50;5111675;28;19908;-52
2023/01/07 00:30:50;;;;;;;19.17;10.73;;;;;;;16.98;100.00;101390.66;5111056;28;20315;-52
2023/01/07 00:33:17;;;;;;;21.80;11.35;;;;;;;16.90;100.00;101398.00;5093121;28;20074;-52
2023/01/07 00:35:44;;;;;;;;;;;;;;;16.99;100.00;101384.22;5087479;28;20074;-54
2023/01/07 00:38:10;;;;;;;20.52;9.25;;;;;;;16.89;100.00;101376.63;5107927;28;19915;-55
2023/01/07 00:40:37;;;;;;;17.87;9.67;;;;;;;16.89;100.00;101390.13;5093015;28;20033;-54
2023/01/07 00:43:04;;;;;;;20.02;11.07;;;;;;;17.13;100.00;101372.19;5107779;28;20295;-54
2023/01/07 00:45:33;;;;;;;;;;;;;;;17.19;100.00;101376.72;5121674;28;20067;-55
2023/01/07 00:48:00;;;;;;;19.93;10.20;;;;;;;16.89;100.00;101371.22;5111077;28;19923;-53
2023/01/07 00:50:31;;;;;;;18.08;9.95;;;;;;;16.88;100.00;101383.88;5095811;28;20362;-52
2023/01/07 00:52:57;;;;;;;19.30;10.40;;;;;;;16.97;100.00;101362.81;5110092;28;20027;-54
2023/01/07 00:55:24;;;;;;;16.40;8.90;;;;;;;16.60;100.00;101357.38;5098385;28;20291;-54
2023/01/07 00:57:50;;;;;;;19.67;11.13;;;;;;;17.08;100.00;101355.84;5110525;28;20062;-53
2023/01/07 01:00:18;;;;;;;18.80;10.40;;;;;;;16.87;100.00;101349.81;5096900;28;20350;-52
2023/01/07 01:02:44;;;;;;;19.83;10.30;;;;;;;16.63;100.00;101360.47;5111373;28;20048;-53
2023/01/07 01:05:10;;;;;;;15.83;9.57;;;;;;;17.28;100.00;101344.78;5094512;28;20272;-52
2023/01/07 01:07:37;;;;;;;16.90;9.70;;;;;;;16.98;100.00;101344.72;5109763;28;20303;-54
2023/01/07 01:10:05;;;;;;;23.40;10.53;;;;;;;16.81;100.00;101352.59;5110865;28;20052;-49
2023/01/07 01:12:31;;;;;;;21.80;10.03;;;;;;;17.01;100.00;101342.41;5109367;28;20275;-53
2023/01/07 01:14:56;;;;;;;24.97;10.33;;;;;;;17.19;100.00;101346.16;5093562;28;20281;-50
2023/01/07 01:17:22;;;;;;;22.63;9.23;;;;;;;16.60;100.00;101339.31;5111605;28;20100;-51
2023/01/07 01:19:47;;;;;;;19.45;9.52;;;;;;;16.90;100.00;101338.56;5097371;28;20043;-53
2023/01/07 01:22:13;;;;;;;19.65;9.18;;;;;;;16.69;100.00;101345.25;5100943;28;20095;-53
2023/01/07 01:24:39;;;;;;;23.73;9.00;;;;;;;17.16;100.00;101336.59;5088775;28;20043;-55
2023/01/07 01:27:04;;;;;;;18.63;9.47;;;;;;;17.23;100.00;101330.31;5107476;28;20063;-53
2023/01/07 01:29:30;;;;;;;15.52;8.57;;;;;;;17.03;100.00;101339.50;5094333;28;20047;-55
2023/01/07 01:31:56;;;;;;;18.95;9.32;;;;;;;17.03;100.00;101329.50;5094305;28;20032;-56
2023/01/07 01:34:22;;;;;;;16.58;8.80;;;;;;;17.23;100.00;101333.81;5100774;28;20048;-52
2023/01/07 01:36:47;;;;;;;13.80;8.88;;;;;;;17.20;100.00;101339.69;5095767;28;20031;-55
2023/01/07 01:39:13;;;;;;;15.60;8.37;;;;;;;17.10;100.00;101328.63;5090117;28;20066;-52
2023/01/07 01:41:39;;;;;;;24.48;9.18;;;;;;;16.99;100.00;101333.72;5098280;28;20023;-52
2023/01/07 01:44:26;;;;;;;17.03;8.73;;;;;;;17.22;100.00;101334.88;5091166;28;20096;-54
2023/01/07 01:46:52;;;;;;;20.10;9.00;;;;;;;16.83;100.00;101339.69;5096306;28;20272;-55
2023/01/07 01:49:31;;;;;;;18.80;9.55;;;;;;;16.68;100.00;101330.09;5094838;28;20268;-51
2023/01/07 01:52:05;;;;;;;13.20;7.57;;;;;;;16.99;100.00;101333.72;5111689;28;20024;-53
2023/01/07 01:54:32;;;;;;;13.77;8.00;;;;;;;17.32;100.00;101332.47;5112069;28;20331;-53
2023/01/07 01:57:01;;;;;;;14.40;8.23;;;;;;;17.16;100.00;101339.31;5094845;28;20261;-54
2023/01/07 01:59:31;;;;;;;12.67;7.07;;;;;;;17.26;100.00;101336.06;5096087;28;20299;-50
2023/01/07 02:02:01;;;;;;;11.03;7.17;;;;;;;16.99;100.00;101322.09;5092920;28;20273;-52
2023/01/07 02:04:29;;;;;;;15.18;8.13;;;;;;;17.21;100.00;101322.44;5093282;28;20281;-50
2023/01/07 02:07:15;;;;;;;15.60;7.47;;;;;;;17.25;100.00;101334.44;5108724;28;20062;-53
2023/01/07 02:09:54;;;;;;;15.60;7.47;;;;;;;17.11;100.00;101324.84;5094211;28;20260;-53
2023/01/07 02:12:48;;;;;;;15.53;7.87;;;;;;;17.45;100.00;101325.22;5104002;28;20295;-52
2023/01/07 02:15:23;;;;;;;11.63;7.60;;;;;;;17.11;100.00;101333.78;5099315;28;20347;-52
2023/01/07 02:18:11;;;;;;;14.30;7.77;;;;;;;17.48;100.00;101324.75;5093521;28;20280;-52
2023/01/07 02:20:46;;;;;;;14.00;7.67;;;;;;;17.13;100.00;101325.44;5092708;28;20288;-51
2023/01/07 02:23:14;;;;;;;14.93;7.87;;;;;;;17.13;100.00;101322.75;5110831;28;20686;-51
2023/01/07 02:26:11;;;;;;;15.33;7.43;;;;;;;17.58;100.00;101321.50;5108498;28;20272;-54
2023/01/07 02:29:15;;;;;;;13.57;6.83;;;;;;;16.68;100.00;101313.06;5113281;28;20287;-50
2023/01/07 02:31:59;;;;;;;15.50;6.67;;;;;;;16.77;100.00;101328.72;5114949;28;20264;-54
2023/01/07 02:34:41;;;;;;;10.37;6.77;;;;;;;16.92;100.00;101322.13;5095289;28;20268;-51
2023/01/07 02:37:27;;;;;;;13.00;6.87;;;;;;;16.87;100.00;101313.88;5118818;28;20276;-50
2023/01/07 02:40:21;;;;;;;13.03;6.87;;;;;;;16.36;100.00;101316.69;5102591;28;20367;-53
2023/01/07 02:43:06;;;;;;;10.87;6.90;;;;;;;15.71;100.00;101315.16;5100886;28;20332;-54
2023/01/07 02:45:43;;;;;;;14.83;7.60;;;;;;;15.85;100.00;101313.97;5106041;28;20264;-50
2023/01/07 02:48:12;;;;;;;;;;;;;;;16.05;100.00;101311.19;5125912;28;20268;-52
2023/01/07 02:50:38;;;;;;;16.97;7.43;;;;;;;15.88;100.00;101310.88;5105732;28;19912;-55
2023/01/07 02:53:06;;;;;;;19.30;7.70;;;;;;;15.91;100.00;101315.84;5121323;28;20279;-53
2023/01/07 02:55:47;;;;;;;19.57;7.30;;;;;;;16.20;100.00;101299.19;5106342;28;20100;-55
2023/01/07 02:58:30;;;;;;;13.93;7.80;;;;;;;16.17;100.00;101305.03;5124591;28;20303;-54
2023/01/07 03:01:02;;;;;;;21.07;7.90;;;;;;;15.98;100.00;101312.28;5101947;28;20348;-56
2023/01/07 03:03:50;;;;;;;16.17;7.40;;;;;;;16.42;100.00;101296.94;5102906;28;20275;-54
2023/01/07 03:06:35;;;;;;;14.00;6.95;;;;;;;15.82;100.00;101292.84;5104625;28;20292;-53
2023/01/07 03:09:19;;;;;;;13.13;7.23;;;;;;;16.02;100.00;101287.31;5118542;28;20039;-55
2023/01/07 03:11:59;;;;;;;11.37;6.27;;;;;;;16.10;100.00;101280.81;5125743;28;20276;-50
2023/01/07 03:14:47;;;;;;;19.93;7.23;;;;;;;15.31;100.00;101281.16;5101109;28;20292;-55
2023/01/07 03:17:18;;;;;;;12.23;7.03;;;;;;;15.36;100.00;101277.81;5121111;28;20287;-55
2023/01/07 03:19:49;;;;;;;19.80;7.73;;;;;;;15.57;100.00;101280.19;5122064;28;20276;-53
2023/01/07 03:22:17;;;;;;;12.83;7.10;;;;;;;15.68;100.00;101273.25;5107044;28;20261;-56
2023/01/07 03:24:45;;;;;;;17.03;7.40;;;;;;;15.61;100.00;101276.00;5121420;28;20276;-55
2023/01/07 03:27:12;;;;;;;16.23;8.03;;;;;;;15.47;100.00;101267.19;5117377;28;20276;-54
2023/01/07 03:29:38;;;;;;;12.33;7.20;;;;;;;15.55;100.00;101260.69;5104791;28;20291;-55
2023/01/07 03:32:14;;;;;;;15.07;7.57;;;;;;;15.65;100.00;101262.91;5104934;28;20299;-54
2023/01/07 03:34:40;;;;;;;13.50;7.37;;;;;;;15.78;100.00;101260.09;5118914;28;20276;-54
2023/01/07 03:37:14;;;;;;;11.60;6.60;;;;;;;15.63;100.00;101262.31;5100283;28;20267;-51
2023/01/07 03:39:42;;;;;;;15.43;7.83;;;;;;;15.39;100.00;101253.97;5105698;28;20286;-54
2023/01/07 03:44:55;;;;;;;19.42;7.72;;;;;;;16.11;100.00;101252.78;5105323;28;20292;-55
2023/01/07 03:47:28;;;;;;;18.23;7.20;;;;;;;16.26;100.00;101248.94;5103112;28;20036;-55
2023/01/07 03:49:55;;;;;;;11.77;6.40;;;;;;;16.75;100.00;101254.41;5103293;28;20261;-52
2023/01/07 03:52:21;;;;;;;11.80;6.20;;;;;;;16.28;100.00;101244.13;5102310;28;20268;-53
2023/01/07 03:54:47;;;;;;;15.95;7.10;;;;;;;16.36;100.00;101240.31;5127325;28;20286;-54
2023/01/07 03:57:14;;;;;;;14.60;7.07;;;;;;;16.32;100.00;101240.75;5104198;28;20047;-54
2023/01/07 03:59:39;;;;;;;13.50;6.83;;;;;;;17.10;100.00;101242.16;5119738;28;20273;-52
2023/01/07 04:02:05;;;;;;;13.05;7.00;;;;;;;16.33;100.00;101233.47;5124595;28;20075;-54
2023/01/07 04:04:31;;;;;;;11.30;6.78;;;;;;;16.18;100.00;101231.16;5105308;28;20459;-53
2023/01/07 04:06:58;;;;;;;;;;;;;;;16.55;100.00;101241.13;5119994;28;20042;-50
2023/01/07 04:09:25;;;;;;;14.98;7.25;;;;;;;15.76;100.00;101234.41;5104547;28;19919;-50
2023/01/07 04:11:51;;;;;;;16.63;6.68;;;;;;;16.22;100.00;101232.34;5101425;28;20040;-52
2023/01/07 04:14:16;;;;;;;15.45;8.27;;;;;;;16.20;100.00;101227.19;5118759;28;20129;-52
2023/01/07 04:16:41;;;;;;;14.70;7.17;;;;;;;16.34;100.00;101224.31;5122156;28;20039;-52
2023/01/07 04:19:07;;;;;;;12.15;7.22;;;;;;;15.54;100.00;101220.47;5106645;28;20072;-53
2023/01/07 04:21:33;;;;;;;20.98;7.18;;;;;;;16.24;100.00;101224.03;5100094;28;20032;-54
2023/01/07 04:24:00;;;;;;;11.70;6.70;;;;;;;16.32;100.00;101216.47;5101525;28;20043;-53
2023/01/07 04:26:26;;;;;;;17.20;7.50;;;;;;;16.37;100.00;101218.47;5101459;28;20647;-53
2023/01/07 04:28:51;;;;;;;12.43;7.40;;;;;;;16.07;100.00;101213.81;5100768;28;20057;-51
2023/01/07 04:31:17;;;;;;;13.55;6.72;;;;;;;16.06;100.00;101204.09;5104109;28;20039;-51
2023/01/07 04:33:43;;;;;;;13.45;6.85;;;;;;;16.82;100.00;101205.69;5113808;28;20041;-51
2023/01/07 04:36:12;;;;;;;14.70;7.43;;;;;;;17.03;100.00;101202.50;5074060;28;20120;-53
2023/01/07 04:38:38;;;;;;;12.93;6.63;;;;;;;17.01;100.00;101198.41;5074156;28;20029;-51
2023/01/07 04:41:03;;;;;;;14.80;6.75;;;;;;;17.04;100.00;101198.75;5073561;28;20286;-52
2023/01/07 04:43:29;;;;;;;17.98;7.85;;;;;;;17.09;100.00;101203.47;5074340;28;20056;-52
2023/01/07 04:45:55;;;;;;;15.23;6.90;;;;;;;16.90;100.00;101189.19;5073599;28;20070;-54
2023/01/07 04:48:21;;;;;;;10.82;5.88;;;;;;;16.58;100.00;101186.66;5071952;28;20047;-48
2023/01/07 04:50:50;;;;;;;10.23;6.33;;;;;;;16.44;100.00;101181.47;5073138;28;20025;-53
2023/01/07 04:53:16;;;;;;;13.85;6.32;;;;;;;16.57;100.00;101187.72;5073450;28;20273;-53
2023/01/07 04:55:44;;;;;;;15.37;6.27;;;;;;;16.83;100.00;101183.03;5073305;28;20043;-53
2023/01/07 04:58:09;;;;;;;15.57;6.13;;;;;;;16.16;100.00;101184.69;5072679;28;20334;-52
2023/01/07 05:00:36;;;;;;;15.33;6.80;;;;;;;15.96;100.00;101174.09;5073105;28;20032;-49
2023/01/07 05:03:03;;;;;;;11.57;5.63;;;;;;;15.86;100.00;101169.19;5073820;28;20338;-52
2023/01/07 05:05:29;;;;;;;13.50;5.38;;;;;;;16.33;100.00;101169.53;5073382;28;20270;-54
2023/01/07 05:07:55;;;;;;;;;;;;;;;15.85;100.00;101165.66;5073376;28;20112;-54
2023/01/07 05:10:22;;;;;;;11.33;5.77;;;;;;;16.32;100.00;101167.06;5072715;28;19959;-54
2023/01/07 05:12:50;;;;;;;10.40;5.17;;;;;;;16.00;100.00;101176.13;5072846;28;20265;-50
2023/01/07 05:15:17;;;;;;;12.43;5.07;;;;;;;16.89;100.00;101157.81;5071763;28;20269;-53
2023/01/07 05:17:43;;;;;;;13.27;5.25;;;;;;;16.29;100.00;101164.81;5072838;28;20274;-53
2023/01/07 05:20:09;;;;;;;13.13;5.30;;;;;;;16.84;100.00;101163.06;5073293;28;20044;-53
2023/01/07 05:22:37;;;;;;;9.20;5.13;;;;;;;16.64;100.00;101158.78;5072942;28;20029;-52
2023/01/07 05:25:02;;;;;;;11.20;5.37;;;;;;;16.36;100.00;101165.53;5073567;28;20281;-51
2023/01/07 05:27:28;;;;;;;9.52;5.05;;;;;;;16.27;100.00;101175.00;5072712;28;20499;-52
2023/01/07 05:29:54;;;;;;;7.37;4.33;;;;;;;16.40;100.00;101158.69;5073337;28;20101;-52
2023/01/07 05:32:19;;;;;;;7.40;4.13;;;;;;;16.07;100.00;101157.16;5073560;28;20277;-48
2023/01/07 05:34:44;;;;;;;11.40;5.13;;;;;;;16.11;100.00;101152.16;5074570;28;20068;-56
2023/01/07 05:37:10;;;;;;;11.37;4.50;;;;;;;16.11;100.00;101158.38;5078157;28;20028;-53
2023/01/07 05:39:37;;;;;;;8.57;4.50;;;;;;;16.29;100.00;101149.47;5076099;28;20028;-54
2023/01/07 05:42:04;;;;;;;8.17;4.30;;;;;;;16.15;100.00;101151.50;5074899;28;20285;-51
2023/01/07 05:44:30;;;;;;;8.40;3.97;;;;;;;16.65;100.00;101144.22;5073042;28;20262;-53
2023/01/07 05:46:56;;;;;;;7.93;3.60;;;;;;;16.47;100.00;101143.22;5084242;28;20108;-53
2023/01/07 05:49:21;;;;;;;9.80;4.27;;;;;;;16.17;100.00;101132.38;5078834;28;20029;-52
2023/01/07 05:51:47;;;;;;;9.90;3.40;;;;;;;16.22;100.00;101119.00;5074691;28;20273;-51
2023/01/07 05:54:12;;;;;;;6.93;3.67;;;;;;;16.43;100.00;101131.22;5073196;28;20036;-51
2023/01/07 05:56:38;;;;;;;9.45;3.67;;;;;;;16.37;100.00;101134.81;5076072;28;20047;-49
2023/01/07 05:59:03;;;;;;;7.57;3.58;;;;;;;16.39;100.00;101123.78;5073024;28;20036;-51
2023/01/07 06:01:29;;;;;;;7.73;3.67;;;;;;;16.31;100.00;101133.03;5078131;28;20100;-53
2023/01/07 06:03:54;;;;;;;6.68;3.85;;;;;;;16.19;100.00;101128.41;5073425;28;20305;-51
2023/01/07 06:06:20;;;;;;;7.53;3.80;;;;;;;16.26;100.00;101130.19;5073306;28;20037;-53
2023/01/07 06:08:46;;;;;;;9.95;4.03;;;;;;;16.33;100.00;101141.72;5073193;28;20096;-51
2023/01/07 06:11:11;;;;;;;6.97;4.10;;;;;;;16.18;100.00;101128.63;5073263;28;20040;-54
2023/01/07 06:13:37;;;;;;;6.95;3.90;;;;;;;16.05;100.00;101140.38;5073082;28;20037;-50
2023/01/07 06:16:06;;;;;;;11.83;4.13;;;;;;;16.50;100.00;101120.34;5072907;28;20056;-52
2023/01/07 06:18:32;;;;;;;5.97;3.37;;;;;;;16.52;100.00;101125.50;5078882;28;20270;-50
2023/01/07 06:20:58;;;;;;;9.38;3.90;;;;;;;16.60;100.00;101122.47;5076289;28;20278;-50
2023/01/07 06:23:23;;;;;;;6.13;3.30;;;;;;;16.52;100.00;101112.00;5076385;28;20029;-53
2023/01/07 06:25:49;;;;;;;12.37;3.97;;;;;;;16.39;100.00;101103.03;5077292;28;20266;-49
2023/01/07 06:28:14;;;;;;;7.03;2.85;;;;;;;16.33;100.00;101112.88;5079884;28;20088;-51
2023/01/07 06:30:40;;;;;;;6.07;2.83;;;;;;;16.31;100.00;101103.34;5076943;28;20033;-52
2023/01/07 06:33:05;;;;;;;6.20;3.50;;;;;;;16.05;100.00;101110.72;5079451;28;20281;-50
2023/01/07 06:35:32;;;;;;;5.88;3.28;;;;;;;16.39;100.00;101099.50;5114072;28;20126;-54
2023/01/07 06:37:57;;;;;;;4.78;2.72;;;;;;;16.38;100.00;101100.56;5117473;28;20965;-49
2023/01/07 06:40:23;;;;;;;5.85;2.97;;;;;;;16.81;100.00;101098.72;5114768;28;20055;-52
2023/01/07 06:42:49;;;;;;;7.65;2.92;;;;;;;16.65;100.00;101092.94;5119531;28;20036;-53
2023/01/07 06:45:14;;;;;;;5.63;3.00;;;;;;;16.33;100.00;101087.75;5124326;28;20066;-52
2023/01/07 06:47:40;;;;;;;6.27;2.70;;;;;;;16.37;100.00;101086.22;5122569;28;20028;-52
2023/01/07 06:50:06;;;;;;;4.73;2.33;;;;;;;16.51;100.00;101088.75;5106124;28;20267;-50
2023/01/07 06:52:32;;;;;;;;;;;;;;;16.13;100.00;101069.94;5124170;28;20019;-52
2023/01/07 06:54:57;;;;;;;5.57;2.43;;;;;;;16.02;100.00;101068.00;5119076;28;19912;-48
2023/01/07 06:57:23;;;;;;;4.78;2.53;;;;;;;16.24;100.00;101068.34;5123954;28;20035;-48
2023/01/07 06:59:48;;;;;;;4.57;2.33;;;;;;;16.45;100.00;101071.59;5122478;28;20062;-49
2023/01/07 07:02:20;;;;;;;4.97;2.63;;;;;;;16.26;100.00;101063.56;5120547;28;20051;-49
2023/01/07 07:04:46;;;;;;;3.57;2.23;;;;;;;16.68;100.00;101062.75;5119944;28;20035;-53
2023/01/07 07:07:11;;;;;;;6.53;2.17;;;;;;;16.37;100.00;101053.84;5125543;28;20347;-55
2023/01/07 07:09:37;;;;;;;9.98;2.20;;;;;;;16.25;100.00;101078.09;5121707;28;20031;-55
2023/01/07 07:12:03;;;;;;;3.77;2.27;;;;;;;16.15;100.00;101065.16;5121915;28;20031;-55
2023/01/07 07:14:28;;;;;;;10.02;2.50;;;;;;;15.87;100.00;101058.38;5123030;28;20039;-52
2023/01/07 07:16:54;;;;;;;7.70;1.92;;;;;;;16.25;100.00;101064.59;5119307;28;20032;-54
2023/01/07 07:19:20;;;;;;;4.43;2.10;;;;;;;16.41;100.00;101067.72;5124275;28;20039;-52
2023/01/07 07:21:46;;;;;;;4.72;2.15;;;;;;;16.39;100.00;101059.88;5120524;28;20035;-50
2023/01/07 07:24:12;;;;;;;5.38;1.98;;;;;;;16.30;100.00;101062.06;5119213;28;20028;-53
2023/01/07 07:26:37;;;;;;;3.30;1.73;;;;;;;16.53;100.00;101046.16;5121493;28;20038;-52
2023/01/07 07:29:03;;;;;;;4.40;1.80;;;;;;;16.38;100.00;101050.13;5117927;28;20039;-52
2023/01/07 07:31:28;;;;;;;2.50;1.80;;;;;;;16.50;100.00;101074.44;5119837;28;20062;-52
2023/01/07 07:33:54;;;;;;;3.00;1.80;;;;;;;16.10;100.00;101056.91;5127087;28;20060;-48
2023/01/07 07:36:19;;;;;;;6.10;2.07;;;;;;;16.55;100.00;101049.44;5122507;28;20272;-53
2023/01/07 07:38:45;;;;;;;5.07;1.90;;;;;;;16.32;100.00;101045.63;5125840;28;20054;-55
2023/01/07 07:41:10;;;;;;;3.67;1.93;;;;;;;16.25;100.00;101045.69;5121564;28;20073;-50
2023/01/07 07:43:36;;;;;;;3.20;1.80;;;;;;;16.05;100.00;101032.47;5126308;28;20056;-50
2023/01/07 07:46:02;;;;;;;3.57;1.53;;;;;;;15.87;100.00;101036.00;5120730;28;20024;-51
2023/01/07 07:48:28;;;;;;;6.63;1.45;;;;;;;15.72;100.00;101033.69;5122651;28;20087;-54
2023/01/07 07:50:53;;;;;;;7.07;1.83;;;;;;;15.98;100.00;101043.34;5122346;28;20107;-54
2023/01/07 07:53:19;;;;;;;3.72;1.92;;;;;;;16.12;100.00;101037.81;5124160;28;20028;-54
2023/01/07 07:55:45;;;;;;;5.28;2.00;;;;;;;15.69;100.00;101032.25;5124239;28;20028;-51
2023/01/07 07:58:11;;;;;;;4.25;2.25;;;;;;;15.97;100.00;101030.91;5126008;28;20049;-53
2023/01/07 08:00:38;;;;;;;5.00;1.83;;;;;;;16.18;100.00;101029.63;5125880;28;20032;-52
2023/01/07 08:03:03;;;;;;;6.07;1.83;;;;;;;16.00;100.00;101037.75;5117916;28;20272;-53
2023/01/07 08:05:29;;;;;;;5.00;1.70;;;;;;;15.88;100.00;101021.47;5121773;28;20042;-49
2023/01/07 08:07:57;;;;;;;3.13;1.90;;;;;;;16.01;100.00;101025.91;5124096;28;20036;-52
2023/01/07 08:10:24;;;;;;;4.30;2.13;;;;;;;15.75;100.00;101028.66;5120083;28;20036;-52
2023/01/07 08:12:50;;;;;;;4.83;2.00;;;;;;;16.05;100.00;101016.28;5120346;28;20275;-52
2023/01/07 08:15:16;;;;;;;4.67;1.57;;;;;;;16.01;100.00;101025.91;5119174;28;20269;-53
2023/01/07 08:17:42;;;;;;;3.40;2.10;;;;;;;16.27;100.00;101015.81;5120694;28;20031;-53
2023/01/07 08:20:09;;;;;;;3.58;1.55;;;;;;;16.10;100.00;101018.31;5120746;28;20065;-53
2023/01/07 08:22:35;;;;;;;7.13;2.30;;;;;;;15.94;100.00;101025.16;5126857;28;20031;-53
2023/01/07 08:25:01;;;;;;;3.50;2.10;;;;;;;15.96;100.00;101012.28;5120470;28;20264;-52
2023/01/07 08:27:26;;;;;;;3.22;2.28;;;;;;;15.89;100.00;101013.16;5120522;28;20283;-51
2023/01/07 08:29:53;;;;;;;3.65;1.80;;;;;;;15.89;100.00;101009.66;5119774;28;20103;-53
2023/01/07 08:32:20;;;;;;;5.47;1.80;;;;;;;16.03;100.00;101007.63;5122418;28;20031;-52
2023/01/07 08:34:45;;;;;;;3.15;1.40;;;;;;;15.95;100.00;101014.13;5122950;28;20272;-52
2023/01/07 08:37:11;;;;;;;2.07;1.50;;;;;;;15.77;100.00;101002.28;5117861;28;20039;-51
2023/01/07 08:39:36;;;;;;;6.20;1.75;;;;;;;15.90;100.00;101011.31;5122507;28;20043;-54
2023/01/07 08:42:02;;;;;;;3.93;1.90;;;;;;;16.12;100.00;101005.44;5119963;28;20032;-54
2023/01/07 08:44:27;;;;;;;4.20;1.40;;;;;;;16.46;100.00;101009.28;5101699;28;20268;-54
2023/01/07 08:46:53;;;;;;;6.30;2.00;;;;;;;16.40;100.00;101012.91;5117579;28;20265;-52
2023/01/07 08:49:18;;;;;;;2.45;1.30;;;;;;;16.16;100.00;101007.44;5121467;28;20038;-55
2023/01/07 08:51:44;;;;;;;2.27;1.50;;;;;;;16.10;100.00;101008.34;5121401;28;20160;-53
2023/01/07 08:54:10;;;;;;;3.13;1.27;;;;;;;15.70;100.00;101006.13;5117128;28;20268;-55
2023/01/07 08:56:35;;;;;;;3.70;1.50;;;;;;;16.42;100.00;101004.56;5116088;28;20036;-52
2023/01/07 08:59:00;;;;;;;2.38;1.50;;;;;;;16.08;100.00;101007.75;5120304;28;20051;-52
2023/01/07 09:01:26;;;;;;;4.13;1.27;;;;;;;16.42;100.00;101005.41;5120426;28;20035;-51
2023/01/07 09:03:52;;;;;;;2.67;1.60;;;;;;;16.28;100.00;101017.44;5123145;28;20270;-52
2023/01/07 09:06:17;;;;;;;2.20;1.40;;;;;;;16.36;100.00;100990.13;5125075;28;20035;-52
2023/01/07 09:08:43;;;;;;;3.30;1.25;;;;;;;16.27;100.00;100989.66;5125858;28;20111;-52
2023/01/07 09:11:09;;;;;;;2.90;1.20;;;;;;;16.54;100.00;101007.31;5124761;28;20095;-50
2023/01/07 09:13:34;;;;;;;3.17;1.57;;;;;;;16.50;100.00;101004.25;5116770;28;20040;-53
2023/01/07 09:15:59;;;;;;;2.90;1.80;;;;;;;16.97;100.00;100998.09;5117026;28;20039;-49
2023/01/07 09:18:25;;;;;;;4.10;1.60;;;;;;;16.49;100.00;100999.91;5124476;28;20036;-54
2023/01/07 09:20:51;;;;;;;4.13;1.20;;;;;;;16.81;100.00;100988.81;5114047;28;20042;-52
2023/01/07 09:23:16;;;;;;;2.63;1.50;;;;;;;16.61;100.00;100983.75;5119159;28;20039;-50
2023/01/07 09:25:42;;;;;;;6.00;1.15;;;;;;;16.81;100.00;100983.41;5119032;28;20043;-53
2023/01/07 09:28:07;;;;;;;2.33;1.45;;;;;;;16.83;100.00;100983.16;5122853;28;20043;-52
2023/01/07 09:30:33;;;;;;;2.43;1.17;;;;;;;16.81;100.00;100977.16;5119646;28;20031;-54
2023/01/07 09:32:59;;;;;;;3.28;1.42;;;;;;;16.98;100.00;100975.44;5126229;28;20047;-54
2023/01/07 09:35:25;;;;;;;2.67;1.67;;;;;;;16.80;100.00;100968.25;5122924;28;20047;-49
2023/01/07 09:37:50;;;;;;;3.28;1.40;;;;;;;16.70;100.00;100963.44;5125234;28;20055;-53
2023/01/07 09:40:25;;;;;;;3.73;1.80;;;;;;;17.02;100.00;100962.31;5120950;28;20062;-51
2023/01/07 09:42:58;;;;;;;3.20;1.50;;;;;;;16.95;100.00;100964.25;5116584;28;20265;-54
2023/01/07 09:45:46;;;;;;;3.00;1.60;;;;;;;16.73;100.00;100959.47;5115278;28;20272;-54
2023/01/07 09:48:20;;;;;;;;;;;;;;;16.92;100.00;100952.88;5113822;28;20284;-54
2023/01/07 09:50:49;;;;;;;3.87;1.53;;;;;;;17.02;100.00;100948.81;5116899;28;19912;-52
2023/01/07 09:53:21;;;;;;;3.13;1.20;;;;;;;16.96;100.00;100952.41;5113865;28;20337;-49
2023/01/07 09:55:50;;;;;;;1.93;1.30;;;;;;;17.11;100.00;100944.66;5113631;28;20260;-55
2023/01/07 09:58:18;;;;;;;3.77;1.60;;;;;;;17.16;100.00;100938.56;5113275;28;20272;-52
2023/01/07 10:01:06;;;;;;;3.23;1.53;;;;;;;16.77;100.00;100939.84;5111167;28;20291;-52
2023/01/07 10:03:43;;;;;;;;;;;;;;;16.85;100.00;100937.84;5116646;28;20271;-54
2023/01/07 10:06:17;;;;;;;3.50;1.47;;;;;;;16.83;100.00;100931.84;5117752;28;19922;-53
2023/01/07 10:09:03;;;;;;;2.30;1.47;;;;;;;16.51;100.00;100926.78;5112951;28;20269;-52
2023/01/07 10:11:54;;;;;;;4.73;1.60;;;;;;;16.57;100.00;100932.09;5117825;28;20248;-54
2023/01/07 10:14:41;;;;;;;3.60;1.60;;;;;;;16.48;100.00;100920.81;5110760;28;20265;-53
2023/01/07 10:17:25;;;;;;;4.22;1.60;;;;;;;16.67;100.00;100909.91;5112198;28;20269;-52
2023/01/07 10:20:22;;;;;;;6.17;1.47;;;;;;;16.78;100.00;100905.56;5110665;28;20032;-54
2023/01/07 10:23:11;;;;;;;8.48;1.50;;;;;;;16.57;100.00;100899.69;5113889;28;20263;-52
2023/01/07 10:25:44;;;;;;;2.90;1.43;;;;;;;17.04;100.00;100879.13;5113346;28;20066;-51
2023/01/07 10:28:17;;;;;;;2.13;1.30;;;;;;;16.92;100.00;100871.84;5112397;28;20277;-51
2023/01/07 10:30:44;;;;;;;3.20;1.60;;;;;;;17.57;100.00;100879.09;5117624;28;20288;-54
2023/01/07 10:33:18;;;;;;;3.40;1.70;;;;;;;18.71;100.00;100870.16;5116806;28;20281;-48
2023/01/07 10:35:46;;;;;;;2.90;1.50;;;;;;;19.17;98.91;100865.38;5111169;28;20276;-52
2023/01/07 10:38:18;;;;;;;2.80;1.47;;;;;;;19.73;93.91;100858.09;5113239;28;20260;-50
2023/01/07 10:40:50;;;;;;;1.63;0.93;;;;;;;19.62;92.32;100852.59;5115995;28;20285;-54
2023/01/07 10:43:43;;;;;;;1.30;0.90;;;;;;;19.62;91.95;100857.19;5113350;28;20028;-52
2023/01/07 10:46:22;;;;;;;2.47;1.23;;;;;;;20.51;89.67;100851.44;5121638;28;20035;-54
2023/01/07 10:49:08;;;;;;;4.73;1.30;;;;;;;19.81;89.07;100838.63;5124234;28;20101;-52
2023/01/07 10:51:52;;;;;;;1.97;1.30;;;;;;;19.85;89.53;100841.66;5121701;28;20035;-52
2023/01/07 10:54:40;;;;;;;1.87;1.23;;;;;;;19.27;90.79;100842.19;5119837;28;20151;-52
2023/01/07 10:57:19;;;;;;;2.00;1.10;;;;;;;19.43;91.12;100826.91;5117391;28;20031;-50
2023/01/07 10:59:50;;;;;;;1.60;0.90;;;;;;;19.66;88.36;100824.94;5121806;28;20028;-54
2023/01/07 11:02:18;;;;;;;3.37;0.97;;;;;;;19.67;88.25;100818.44;5119572;28;20042;-53
2023/01/07 11:04:45;;;;;;;2.37;0.97;;;;;;;19.49;86.50;100826.69;5120783;28;20024;-52
2023/01/07 11:07:23;;;;;;;1.25;0.85;;;;;;;19.62;86.68;100820.03;5122197;28;20096;-52
2023/01/07 11:09:51;;;;;;;4.93;1.30;;;;;;;19.79;86.26;100813.66;5124781;28;20027;-52
2023/01/07 11:12:50;;;;;;;1.67;1.00;;;;;;;19.63;85.42;100818.13;5121816;28;20024;-53
2023/01/07 11:15:26;;;;;;;1.80;0.60;;;;;;;19.31;86.09;100803.44;5098868;28;20055;-53
2023/01/07 11:18:01;;;;;;;4.40;1.55;;;;;;;18.67;89.67;100791.28;5118941;28;20042;-49
2023/01/07 11:20:48;;;;;;;3.57;0.80;;;;;;;18.25;92.35;100794.53;5123752;28;20043;-51
2023/01/07 11:23:18;;;;;;;1.63;0.85;;;;;;;17.81;93.67;100789.72;5121173;28;20032;-52
2023/01/07 11:25:45;;;;;;;3.37;1.00;;;;;;;18.04;93.92;100780.69;5125048;28;20023;-52
2023/01/07 11:28:18;;;;;;;2.08;1.10;;;;;;;18.38;91.78;100768.97;5121188;28;20275;-53
2023/01/07 11:30:54;;;;;;;2.57;0.90;;;;;;;18.51;90.21;100751.56;5123439;28;20073;-55